sensor_id;sensor_type;location;lat;lon;timestamp;pressure;altitude;pressure_sealevel;temperature;humidity
2711;BME280;20721;47.402;8.550;2024-01-30T00:00:31;97554;;;3.32;64.31
2711;BME280;20721;47.402;8.550;2024-01-30T00:04:31;97554;;;3.32;63.90
2711;BME280;20721;47.402;8.550;2024-01-30T00:06:31;97554;;;3.31;64.54
2711;BME280;20721;47.402;8.550;2024-01-30T00:08:31;97550;;;3.29;64.26
2711;BME280;20721;47.402;8.550;2024-01-30T00:10:31;97548;;;3.23;64.54
2711;BME280;20721;47.402;8.550;2024-01-30T00:12:31;97546;;;3.29;64.58
2711;BME280;20721;47.402;8.550;2024-01-30T00:14:31;97547;;;3.36;64.35
2711;BME280;20721;47.402;8.550;2024-01-30T00:16:31;97548;;;3.40;64.22
2711;BME280;20721;47.402;8.550;2024-01-30T00:18:31;97544;;;3.44;64.21
2711;BME280;20721;47.402;8.550;2024-01-30T00:20:31;97546;;;3.43;64.13
2711;BME280;20721;47.402;8.550;2024-01-30T00:22:31;97543;;;3.38;63.89
2711;BME280;20721;47.402;8.550;2024-01-30T00:24:31;97542;;;3.35;63.97
2711;BME280;20721;47.402;8.550;2024-01-30T00:26:31;97544;;;3.39;63.99
2711;BME280;20721;47.402;8.550;2024-01-30T00:28:31;97544;;;3.43;64.05
2711;BME280;20721;47.402;8.550;2024-01-30T00:30:31;97544;;;3.40;63.88
2711;BME280;20721;47.402;8.550;2024-01-30T00:32:31;97547;;;3.40;63.91
2711;BME280;20721;47.402;8.550;2024-01-30T00:35:31;97552;;;3.39;64.36
2711;BME280;20721;47.402;8.550;2024-01-30T00:37:31;97545;;;3.38;64.11
2711;BME280;20721;47.402;8.550;2024-01-30T00:39:31;97548;;;3.37;64.03
2711;BME280;20721;47.402;8.550;2024-01-30T00:41:31;97551;;;3.33;64.04
2711;BME280;20721;47.402;8.550;2024-01-30T00:43:31;97547;;;3.32;64.06
2711;BME280;20721;47.402;8.550;2024-01-30T00:45:31;97549;;;3.27;63.96
2711;BME280;20721;47.402;8.550;2024-01-30T00:47:32;97548;;;3.17;64.34
2711;BME280;20721;47.402;8.550;2024-01-30T00:50:31;97551;;;3.16;64.52
2711;BME280;20721;47.402;8.550;2024-01-30T00:53:31;97550;;;3.20;63.92
2711;BME280;20721;47.402;8.550;2024-01-30T00:55:31;97553;;;3.21;64.15
2711;BME280;20721;47.402;8.550;2024-01-30T00:57:31;97551;;;3.25;63.88
2711;BME280;20721;47.402;8.550;2024-01-30T00:59:31;97551;;;3.28;63.85
2711;BME280;20721;47.402;8.550;2024-01-30T01:01:31;97551;;;3.31;63.86
2711;BME280;20721;47.402;8.550;2024-01-30T01:03:31;97547;;;3.32;63.38
2711;BME280;20721;47.402;8.550;2024-01-30T01:05:31;97547;;;3.27;63.49
2711;BME280;20721;47.402;8.550;2024-01-30T01:07:31;97549;;;3.24;63.71
2711;BME280;20721;47.402;8.550;2024-01-30T01:10:31;97547;;;3.25;63.80
2711;BME280;20721;47.402;8.550;2024-01-30T01:12:31;97548;;;3.25;63.54
2711;BME280;20721;47.402;8.550;2024-01-30T01:14:31;97548;;;3.27;63.74
2711;BME280;20721;47.402;8.550;2024-01-30T01:19:31;97552;;;3.30;63.21
2711;BME280;20721;47.402;8.550;2024-01-30T01:21:31;97551;;;3.25;63.22
2711;BME280;20721;47.402;8.550;2024-01-30T01:23:31;97553;;;3.24;63.44
2711;BME280;20721;47.402;8.550;2024-01-30T01:26:31;97551;;;3.22;63.46
2711;BME280;20721;47.402;8.550;2024-01-30T01:28:31;97553;;;3.20;63.49
2711;BME280;20721;47.402;8.550;2024-01-30T01:30:31;97548;;;3.20;63.63
2711;BME280;20721;47.402;8.550;2024-01-30T01:35:31;97549;;;3.19;63.97
2711;BME280;20721;47.402;8.550;2024-01-30T01:37:31;97553;;;3.21;64.07
2711;BME280;20721;47.402;8.550;2024-01-30T01:39:31;97549;;;3.21;63.95
2711;BME280;20721;47.402;8.550;2024-01-30T01:41:32;97548;;;3.20;64.08
2711;BME280;20721;47.402;8.550;2024-01-30T01:46:32;97546;;;3.17;63.96
2711;BME280;20721;47.402;8.550;2024-01-30T01:49:31;97543;;;3.19;63.73
2711;BME280;20721;47.402;8.550;2024-01-30T01:51:31;97542;;;3.20;63.68
2711;BME280;20721;47.402;8.550;2024-01-30T01:56:31;97543;;;3.20;63.22
2711;BME280;20721;47.402;8.550;2024-01-30T01:59:31;97540;;;3.22;63.20
2711;BME280;20721;47.402;8.550;2024-01-30T02:02:31;97542;;;3.18;63.18
2711;BME280;20721;47.402;8.550;2024-01-30T02:04:31;97541;;;3.17;63.16
2711;BME280;20721;47.402;8.550;2024-01-30T02:06:31;97540;;;3.20;63.08
2711;BME280;20721;47.402;8.550;2024-01-30T02:09:31;97533;;;3.21;63.10
2711;BME280;20721;47.402;8.550;2024-01-30T02:12:31;97540;;;3.18;62.89
2711;BME280;20721;47.402;8.550;2024-01-30T02:14:31;97543;;;3.18;62.95
2711;BME280;20721;47.402;8.550;2024-01-30T02:16:31;97544;;;3.16;62.94
2711;BME280;20721;47.402;8.550;2024-01-30T02:18:31;97547;;;3.13;63.00
2711;BME280;20721;47.402;8.550;2024-01-30T02:20:31;97544;;;3.09;63.21
2711;BME280;20721;47.402;8.550;2024-01-30T02:22:32;97541;;;3.08;63.15
2711;BME280;20721;47.402;8.550;2024-01-30T02:24:31;97543;;;2.93;63.63
2711;BME280;20721;47.402;8.550;2024-01-30T02:26:31;97543;;;2.94;63.59
2711;BME280;20721;47.402;8.550;2024-01-30T02:28:31;97542;;;2.99;63.48
2711;BME280;20721;47.402;8.550;2024-01-30T02:30:31;97544;;;3.02;63.25
2711;BME280;20721;47.402;8.550;2024-01-30T02:32:31;97540;;;3.04;63.20
2711;BME280;20721;47.402;8.550;2024-01-30T02:34:31;97542;;;3.00;63.21
2711;BME280;20721;47.402;8.550;2024-01-30T02:37:31;97540;;;2.96;63.26
2711;BME280;20721;47.402;8.550;2024-01-30T02:39:31;97543;;;2.94;63.38
2711;BME280;20721;47.402;8.550;2024-01-30T02:41:31;97546;;;2.96;63.39
2711;BME280;20721;47.402;8.550;2024-01-30T02:46:31;97545;;;2.97;63.38
2711;BME280;20721;47.402;8.550;2024-01-30T02:48:31;97544;;;3.02;63.34
2711;BME280;20721;47.402;8.550;2024-01-30T02:51:31;97541;;;3.04;63.24
2711;BME280;20721;47.402;8.550;2024-01-30T02:53:31;97542;;;3.04;63.00
2711;BME280;20721;47.402;8.550;2024-01-30T02:55:31;97535;;;3.01;63.21
2711;BME280;20721;47.402;8.550;2024-01-30T02:57:31;97533;;;3.04;63.28
2711;BME280;20721;47.402;8.550;2024-01-30T02:59:33;97534;;;2.97;63.30
2711;BME280;20721;47.402;8.550;2024-01-30T03:01:31;97531;;;2.95;63.27
2711;BME280;20721;47.402;8.550;2024-01-30T03:03:31;97526;;;2.93;63.40
2711;BME280;20721;47.402;8.550;2024-01-30T03:05:31;97529;;;2.95;63.31
2711;BME280;20721;47.402;8.550;2024-01-30T03:07:31;97527;;;2.97;63.28
2711;BME280;20721;47.402;8.550;2024-01-30T03:09:31;97524;;;3.02;63.23
2711;BME280;20721;47.402;8.550;2024-01-30T03:11:31;97526;;;2.99;62.93
2711;BME280;20721;47.402;8.550;2024-01-30T03:13:31;97523;;;2.95;63.04
2711;BME280;20721;47.402;8.550;2024-01-30T03:17:32;97523;;;2.99;63.03
2711;BME280;20721;47.402;8.550;2024-01-30T03:19:31;97525;;;2.97;63.04
2711;BME280;20721;47.402;8.550;2024-01-30T03:21:31;97521;;;2.99;62.93
2711;BME280;20721;47.402;8.550;2024-01-30T03:23:32;97522;;;2.91;63.07
2711;BME280;20721;47.402;8.550;2024-01-30T03:25:31;97521;;;2.92;63.15
2711;BME280;20721;47.402;8.550;2024-01-30T03:28:31;97524;;;2.95;63.11
2711;BME280;20721;47.402;8.550;2024-01-30T03:31:31;97521;;;2.94;63.05
2711;BME280;20721;47.402;8.550;2024-01-30T03:33:31;97516;;;2.94;62.96
2711;BME280;20721;47.402;8.550;2024-01-30T03:37:31;97517;;;2.92;62.83
2711;BME280;20721;47.402;8.550;2024-01-30T03:39:31;97516;;;2.95;62.93
2711;BME280;20721;47.402;8.550;2024-01-30T03:41:31;97517;;;2.94;62.65
2711;BME280;20721;47.402;8.550;2024-01-30T03:43:31;97519;;;2.92;62.76
2711;BME280;20721;47.402;8.550;2024-01-30T03:45:31;97517;;;2.91;62.85
2711;BME280;20721;47.402;8.550;2024-01-30T03:47:31;97520;;;2.85;62.87
2711;BME280;20721;47.402;8.550;2024-01-30T03:49:31;97521;;;2.83;63.10
2711;BME280;20721;47.402;8.550;2024-01-30T03:52:31;97527;;;2.83;63.11
2711;BME280;20721;47.402;8.550;2024-01-30T03:54:31;97525;;;2.83;63.22
2711;BME280;20721;47.402;8.550;2024-01-30T03:56:31;97524;;;2.82;63.04
2711;BME280;20721;47.402;8.550;2024-01-30T03:58:31;97523;;;2.72;63.16
2711;BME280;20721;47.402;8.550;2024-01-30T04:01:31;97521;;;2.71;63.40
2711;BME280;20721;47.402;8.550;2024-01-30T04:04:31;97518;;;2.69;63.26
2711;BME280;20721;47.402;8.550;2024-01-30T04:06:31;97519;;;2.68;63.40
2711;BME280;20721;47.402;8.550;2024-01-30T04:08:31;97521;;;2.69;63.29
2711;BME280;20721;47.402;8.550;2024-01-30T04:10:31;97523;;;2.69;63.37
2711;BME280;20721;47.402;8.550;2024-01-30T04:13:32;97525;;;2.67;63.24
2711;BME280;20721;47.402;8.550;2024-01-30T04:16:31;97530;;;2.68;63.41
2711;BME280;20721;47.402;8.550;2024-01-30T04:18:32;97528;;;2.73;63.35
2711;BME280;20721;47.402;8.550;2024-01-30T04:21:31;97528;;;2.77;63.20
2711;BME280;20721;47.402;8.550;2024-01-30T04:23:31;97531;;;2.78;63.13
2711;BME280;20721;47.402;8.550;2024-01-30T04:25:31;97534;;;2.83;63.08
2711;BME280;20721;47.402;8.550;2024-01-30T04:28:31;97525;;;2.83;62.77
2711;BME280;20721;47.402;8.550;2024-01-30T04:30:31;97530;;;2.70;62.78
2711;BME280;20721;47.402;8.550;2024-01-30T04:32:31;97528;;;2.66;63.03
2711;BME280;20721;47.402;8.550;2024-01-30T04:34:31;97534;;;2.69;63.03
2711;BME280;20721;47.402;8.550;2024-01-30T04:36:31;97533;;;2.68;62.94
2711;BME280;20721;47.402;8.550;2024-01-30T04:39:33;97535;;;2.66;62.79
2711;BME280;20721;47.402;8.550;2024-01-30T04:41:32;97528;;;2.63;62.61
2711;BME280;20721;47.402;8.550;2024-01-30T04:43:31;97535;;;2.54;62.63
2711;BME280;20721;47.402;8.550;2024-01-30T04:45:31;97534;;;2.54;62.78
2711;BME280;20721;47.402;8.550;2024-01-30T04:47:31;97534;;;2.59;62.60
2711;BME280;20721;47.402;8.550;2024-01-30T04:49:32;97532;;;2.61;62.37
2711;BME280;20721;47.402;8.550;2024-01-30T04:51:31;97532;;;2.63;62.09
2711;BME280;20721;47.402;8.550;2024-01-30T04:53:31;97531;;;2.65;61.73
2711;BME280;20721;47.402;8.550;2024-01-30T04:55:31;97525;;;2.64;61.52
2711;BME280;20721;47.402;8.550;2024-01-30T04:58:31;97529;;;2.59;61.60
2711;BME280;20721;47.402;8.550;2024-01-30T05:00:31;97530;;;2.61;61.43
2711;BME280;20721;47.402;8.550;2024-01-30T05:02:31;97529;;;2.61;61.50
2711;BME280;20721;47.402;8.550;2024-01-30T05:05:31;97535;;;2.58;61.46
2711;BME280;20721;47.402;8.550;2024-01-30T05:07:31;97539;;;2.43;61.64
2711;BME280;20721;47.402;8.550;2024-01-30T05:10:31;97538;;;2.39;61.68
2711;BME280;20721;47.402;8.550;2024-01-30T05:12:31;97538;;;2.33;61.97
2711;BME280;20721;47.402;8.550;2024-01-30T05:14:31;97540;;;2.29;62.06
2711;BME280;20721;47.402;8.550;2024-01-30T05:16:31;97542;;;2.34;62.25
2711;BME280;20721;47.402;8.550;2024-01-30T05:18:31;97542;;;2.38;61.95
2711;BME280;20721;47.402;8.550;2024-01-30T05:20:31;97546;;;2.42;61.99
2711;BME280;20721;47.402;8.550;2024-01-30T05:22:31;97543;;;2.47;61.72
2711;BME280;20721;47.402;8.550;2024-01-30T05:24:32;97544;;;2.47;61.74
2711;BME280;20721;47.402;8.550;2024-01-30T05:27:31;97546;;;2.50;61.58
2711;BME280;20721;47.402;8.550;2024-01-30T05:31:32;97554;;;2.50;61.46
2711;BME280;20721;47.402;8.550;2024-01-30T05:34:31;97554;;;2.49;61.54
2711;BME280;20721;47.402;8.550;2024-01-30T05:36:31;97556;;;2.50;61.40
2711;BME280;20721;47.402;8.550;2024-01-30T05:40:31;97557;;;2.47;61.51
2711;BME280;20721;47.402;8.550;2024-01-30T05:42:31;97558;;;2.49;61.55
2711;BME280;20721;47.402;8.550;2024-01-30T05:44:31;97559;;;2.49;61.41
2711;BME280;20721;47.402;8.550;2024-01-30T05:46:31;97561;;;2.50;61.54
2711;BME280;20721;47.402;8.550;2024-01-30T05:48:31;97557;;;2.54;61.37
2711;BME280;20721;47.402;8.550;2024-01-30T05:50:31;97555;;;2.56;61.33
2711;BME280;20721;47.402;8.550;2024-01-30T05:53:31;97558;;;2.56;61.22
2711;BME280;20721;47.402;8.550;2024-01-30T05:55:31;97559;;;2.54;61.27
2711;BME280;20721;47.402;8.550;2024-01-30T05:57:31;97564;;;2.48;61.32
2711;BME280;20721;47.402;8.550;2024-01-30T05:59:32;97562;;;2.43;61.57
2711;BME280;20721;47.402;8.550;2024-01-30T06:01:32;97561;;;2.43;61.74
2711;BME280;20721;47.402;8.550;2024-01-30T06:03:31;97562;;;2.40;61.77
2711;BME280;20721;47.402;8.550;2024-01-30T06:05:31;97561;;;2.36;61.92
2711;BME280;20721;47.402;8.550;2024-01-30T06:08:31;97565;;;2.34;62.08
2711;BME280;20721;47.402;8.550;2024-01-30T06:10:31;97567;;;2.33;62.23
2711;BME280;20721;47.402;8.550;2024-01-30T06:12:31;97566;;;2.34;62.18
2711;BME280;20721;47.402;8.550;2024-01-30T06:14:32;97565;;;2.36;62.25
2711;BME280;20721;47.402;8.550;2024-01-30T06:16:32;97565;;;2.37;62.18
2711;BME280;20721;47.402;8.550;2024-01-30T06:18:31;97564;;;2.36;62.32
2711;BME280;20721;47.402;8.550;2024-01-30T06:20:32;97566;;;2.38;62.38
2711;BME280;20721;47.402;8.550;2024-01-30T06:23:31;97565;;;2.40;62.32
2711;BME280;20721;47.402;8.550;2024-01-30T06:25:32;97564;;;2.42;62.35
2711;BME280;20721;47.402;8.550;2024-01-30T06:28:32;97566;;;2.39;62.34
2711;BME280;20721;47.402;8.550;2024-01-30T06:31:32;97573;;;2.41;62.24
2711;BME280;20721;47.402;8.550;2024-01-30T06:34:32;97576;;;2.42;62.25
2711;BME280;20721;47.402;8.550;2024-01-30T06:37:32;97578;;;2.44;62.30
2711;BME280;20721;47.402;8.550;2024-01-30T06:40:32;97576;;;2.46;62.40
2711;BME280;20721;47.402;8.550;2024-01-30T06:42:31;97578;;;2.48;62.22
2711;BME280;20721;47.402;8.550;2024-01-30T06:44:33;97579;;;2.50;62.42
2711;BME280;20721;47.402;8.550;2024-01-30T06:47:32;97579;;;2.55;62.24
2711;BME280;20721;47.402;8.550;2024-01-30T06:49:32;97582;;;2.54;62.20
2711;BME280;20721;47.402;8.550;2024-01-30T06:51:32;97576;;;2.53;62.18
2711;BME280;20721;47.402;8.550;2024-01-30T06:53:32;97581;;;2.53;62.11
2711;BME280;20721;47.402;8.550;2024-01-30T06:55:32;97582;;;2.50;62.11
2711;BME280;20721;47.402;8.550;2024-01-30T06:57:32;97582;;;2.42;62.23
2711;BME280;20721;47.402;8.550;2024-01-30T06:59:32;97580;;;2.39;62.27
2711;BME280;20721;47.402;8.550;2024-01-30T07:01:32;97580;;;2.42;62.23
2711;BME280;20721;47.402;8.550;2024-01-30T07:03:32;97584;;;2.48;62.13
2711;BME280;20721;47.402;8.550;2024-01-30T07:05:32;97583;;;2.54;62.21
2711;BME280;20721;47.402;8.550;2024-01-30T07:07:32;97588;;;2.61;62.08
2711;BME280;20721;47.402;8.550;2024-01-30T07:09:32;97594;;;2.66;61.80
2711;BME280;20721;47.402;8.550;2024-01-30T07:11:32;97595;;;2.69;61.63
2711;BME280;20721;47.402;8.550;2024-01-30T07:13:32;97595;;;2.69;61.70
2711;BME280;20721;47.402;8.550;2024-01-30T07:15:32;97596;;;2.65;61.85
2711;BME280;20721;47.402;8.550;2024-01-30T07:17:32;97597;;;2.72;61.75
2711;BME280;20721;47.402;8.550;2024-01-30T07:20:32;97601;;;2.72;61.86
2711;BME280;20721;47.402;8.550;2024-01-30T07:22:32;97600;;;2.81;61.68
2711;BME280;20721;47.402;8.550;2024-01-30T07:24:32;97596;;;2.90;61.49
2711;BME280;20721;47.402;8.550;2024-01-30T07:26:32;97597;;;2.99;61.29
2711;BME280;20721;47.402;8.550;2024-01-30T07:28:32;97600;;;3.04;61.10
2711;BME280;20721;47.402;8.550;2024-01-30T07:30:32;97599;;;3.09;61.00
2711;BME280;20721;47.402;8.550;2024-01-30T07:32:32;97597;;;3.12;60.77
2711;BME280;20721;47.402;8.550;2024-01-30T07:34:36;97600;;;3.14;60.86
2711;BME280;20721;47.402;8.550;2024-01-30T07:36:32;97599;;;3.12;60.69
2711;BME280;20721;47.402;8.550;2024-01-30T07:38:32;97606;;;3.16;60.75
2711;BME280;20721;47.402;8.550;2024-01-30T07:40:33;97607;;;3.26;60.58
2711;BME280;20721;47.402;8.550;2024-01-30T07:42:32;97610;;;3.34;60.34
2711;BME280;20721;47.402;8.550;2024-01-30T07:44:32;97613;;;3.41;60.08
2711;BME280;20721;47.402;8.550;2024-01-30T07:46:32;97614;;;3.52;59.94
2711;BME280;20721;47.402;8.550;2024-01-30T07:48:33;97617;;;3.61;59.67
2711;BME280;20721;47.402;8.550;2024-01-30T07:50:32;97616;;;3.69;59.43
2711;BME280;20721;47.402;8.550;2024-01-30T07:52:32;97617;;;3.76;59.13
2711;BME280;20721;47.402;8.550;2024-01-30T07:54:33;97616;;;3.82;58.99
2711;BME280;20721;47.402;8.550;2024-01-30T07:56:32;97616;;;3.90;58.85
2711;BME280;20721;47.402;8.550;2024-01-30T07:59:32;97615;;;3.93;58.47
2711;BME280;20721;47.402;8.550;2024-01-30T08:01:32;97615;;;3.98;58.43
2711;BME280;20721;47.402;8.550;2024-01-30T08:03:32;97615;;;4.06;58.29
2711;BME280;20721;47.402;8.550;2024-01-30T08:05:32;97617;;;4.19;58.14
2711;BME280;20721;47.402;8.550;2024-01-30T08:07:32;97620;;;4.25;57.89
2711;BME280;20721;47.402;8.550;2024-01-30T08:09:32;97615;;;4.39;57.57
2711;BME280;20721;47.402;8.550;2024-01-30T08:11:32;97620;;;4.72;56.88
2711;BME280;20721;47.402;8.550;2024-01-30T08:13:32;97624;;;5.32;55.43
2711;BME280;20721;47.402;8.550;2024-01-30T08:15:32;97630;;;6.25;53.39
2711;BME280;20721;47.402;8.550;2024-01-30T08:17:32;97625;;;7.23;51.05
2711;BME280;20721;47.402;8.550;2024-01-30T08:19:32;97627;;;7.85;49.33
2711;BME280;20721;47.402;8.550;2024-01-30T08:21:36;97631;;;8.65;47.60
2711;BME280;20721;47.402;8.550;2024-01-30T08:23:32;97630;;;9.60;45.41
2711;BME280;20721;47.402;8.550;2024-01-30T08:25:32;97632;;;10.16;44.12
2711;BME280;20721;47.402;8.550;2024-01-30T08:27:32;97632;;;10.55;43.36
2711;BME280;20721;47.402;8.550;2024-01-30T08:29:32;97634;;;10.91;42.45
2711;BME280;20721;47.402;8.550;2024-01-30T08:31:32;97632;;;11.42;41.53
2711;BME280;20721;47.402;8.550;2024-01-30T08:33:32;97631;;;12.04;40.02
2711;BME280;20721;47.402;8.550;2024-01-30T08:35:33;97628;;;13.01;38.44
2711;BME280;20721;47.402;8.550;2024-01-30T08:37:32;97629;;;14.20;36.43
2711;BME280;20721;47.402;8.550;2024-01-30T08:39:32;97630;;;15.24;35.01
2711;BME280;20721;47.402;8.550;2024-01-30T08:41:32;97626;;;16.32;33.40
2711;BME280;20721;47.402;8.550;2024-01-30T08:43:32;97622;;;17.17;32.26
2711;BME280;20721;47.402;8.550;2024-01-30T08:45:32;97621;;;17.62;31.34
2711;BME280;20721;47.402;8.550;2024-01-30T08:47:33;97618;;;18.17;30.51
2711;BME280;20721;47.402;8.550;2024-01-30T08:49:32;97618;;;18.62;29.76
2711;BME280;20721;47.402;8.550;2024-01-30T08:51:32;97622;;;19.16;29.24
2711;BME280;20721;47.402;8.550;2024-01-30T08:53:32;97623;;;19.40;28.66
2711;BME280;20721;47.402;8.550;2024-01-30T08:56:32;97622;;;19.57;28.42
2711;BME280;20721;47.402;8.550;2024-01-30T08:58:32;97624;;;19.59;28.28
2711;BME280;20721;47.402;8.550;2024-01-30T09:00:32;97622;;;19.93;28.07
2711;BME280;20721;47.402;8.550;2024-01-30T09:02:32;97622;;;20.39;27.35
2711;BME280;20721;47.402;8.550;2024-01-30T09:04:32;97616;;;20.64;27.16
2711;BME280;20721;47.402;8.550;2024-01-30T09:06:32;97618;;;20.65;27.01
2711;BME280;20721;47.402;8.550;2024-01-30T09:08:32;97617;;;20.56;27.18
2711;BME280;20721;47.402;8.550;2024-01-30T09:10:32;97619;;;20.60;26.89
2711;BME280;20721;47.402;8.550;2024-01-30T09:12:32;97619;;;20.51;26.87
2711;BME280;20721;47.402;8.550;2024-01-30T09:14:32;97614;;;20.53;26.95
2711;BME280;20721;47.402;8.550;2024-01-30T09:16:32;97617;;;20.52;26.90
2711;BME280;20721;47.402;8.550;2024-01-30T09:18:32;97616;;;20.42;27.21
2711;BME280;20721;47.402;8.550;2024-01-30T09:20:35;97616;;;20.31;27.19
2711;BME280;20721;47.402;8.550;2024-01-30T09:22:32;97622;;;20.06;27.40
2711;BME280;20721;47.402;8.550;2024-01-30T09:24:32;97620;;;20.00;27.35
2711;BME280;20721;47.402;8.550;2024-01-30T09:26:32;97622;;;20.37;27.19
2711;BME280;20721;47.402;8.550;2024-01-30T09:28:32;97619;;;20.84;26.63
2711;BME280;20721;47.402;8.550;2024-01-30T09:30:32;97620;;;21.45;26.22
2711;BME280;20721;47.402;8.550;2024-01-30T09:32:32;97621;;;22.33;25.42
2711;BME280;20721;47.402;8.550;2024-01-30T09:34:32;97623;;;23.20;24.58
2711;BME280;20721;47.402;8.550;2024-01-30T09:36:32;97630;;;23.66;24.10
2711;BME280;20721;47.402;8.550;2024-01-30T09:38:32;97629;;;23.94;23.81
2711;BME280;20721;47.402;8.550;2024-01-30T09:40:32;97629;;;24.38;23.09
2711;BME280;20721;47.402;8.550;2024-01-30T09:42:33;97634;;;24.63;22.97
2711;BME280;20721;47.402;8.550;2024-01-30T09:44:32;97629;;;24.86;23.00
2711;BME280;20721;47.402;8.550;2024-01-30T09:46:32;97628;;;25.22;22.68
2711;BME280;20721;47.402;8.550;2024-01-30T09:48:32;97626;;;25.78;22.19
2711;BME280;20721;47.402;8.550;2024-01-30T09:50:32;97626;;;26.31;21.58
2711;BME280;20721;47.402;8.550;2024-01-30T09:52:32;97627;;;26.41;21.44
2711;BME280;20721;47.402;8.550;2024-01-30T09:54:35;97629;;;26.37;21.62
2711;BME280;20721;47.402;8.550;2024-01-30T09:56:32;97632;;;26.57;21.52
2711;BME280;20721;47.402;8.550;2024-01-30T09:58:32;97631;;;26.37;21.58
2711;BME280;20721;47.402;8.550;2024-01-30T10:00:32;97632;;;26.47;21.64
2711;BME280;20721;47.402;8.550;2024-01-30T10:02:32;97628;;;26.19;21.88
2711;BME280;20721;47.402;8.550;2024-01-30T10:04:32;97633;;;25.59;22.36
2711;BME280;20721;47.402;8.550;2024-01-30T10:06:32;97630;;;23.89;23.97
2711;BME280;20721;47.402;8.550;2024-01-30T10:08:33;97626;;;21.87;26.03
2711;BME280;20721;47.402;8.550;2024-01-30T10:10:32;97637;;;19.93;28.42
2711;BME280;20721;47.402;8.550;2024-01-30T10:12:32;97634;;;18.45;30.37
2711;BME280;20721;47.402;8.550;2024-01-30T10:14:32;97633;;;17.47;32.07
2711;BME280;20721;47.402;8.550;2024-01-30T10:16:33;97632;;;16.63;33.47
2711;BME280;20721;47.402;8.550;2024-01-30T10:18:32;97635;;;15.92;34.70
2711;BME280;20721;47.402;8.550;2024-01-30T10:20:32;97636;;;15.59;35.74
2711;BME280;20721;47.402;8.550;2024-01-30T10:22:32;97633;;;15.45;35.91
2711;BME280;20721;47.402;8.550;2024-01-30T10:24:33;97629;;;15.34;36.68
2711;BME280;20721;47.402;8.550;2024-01-30T10:27:32;97630;;;15.24;37.00
2711;BME280;20721;47.402;8.550;2024-01-30T10:29:32;97627;;;15.29;37.24
2711;BME280;20721;47.402;8.550;2024-01-30T10:32:32;97622;;;15.29;37.42
2711;BME280;20721;47.402;8.550;2024-01-30T10:34:33;97620;;;15.19;37.36
2711;BME280;20721;47.402;8.550;2024-01-30T10:36:32;97616;;;15.09;37.62
2711;BME280;20721;47.402;8.550;2024-01-30T10:38:32;97613;;;14.88;38.44
2711;BME280;20721;47.402;8.550;2024-01-30T10:40:32;97615;;;14.87;38.63
2711;BME280;20721;47.402;8.550;2024-01-30T10:43:35;97617;;;14.84;39.01
2711;BME280;20721;47.402;8.550;2024-01-30T10:45:32;97611;;;14.65;39.25
2711;BME280;20721;47.402;8.550;2024-01-30T10:47:33;97610;;;14.61;39.10
2711;BME280;20721;47.402;8.550;2024-01-30T10:49:32;97607;;;14.52;39.20
2711;BME280;20721;47.402;8.550;2024-01-30T10:51:32;97605;;;14.48;39.46
2711;BME280;20721;47.402;8.550;2024-01-30T10:53:32;97606;;;14.44;39.71
2711;BME280;20721;47.402;8.550;2024-01-30T10:55:32;97601;;;14.34;40.10
2711;BME280;20721;47.402;8.550;2024-01-30T10:57:34;97595;;;14.22;40.55
2711;BME280;20721;47.402;8.550;2024-01-30T11:00:34;97598;;;14.02;40.51
2711;BME280;20721;47.402;8.550;2024-01-30T11:02:32;97593;;;13.79;41.03
2711;BME280;20721;47.402;8.550;2024-01-30T11:04:36;97590;;;13.50;41.56
2711;BME280;20721;47.402;8.550;2024-01-30T11:06:33;97583;;;13.39;41.86
2711;BME280;20721;47.402;8.550;2024-01-30T11:08:32;97584;;;13.32;42.15
2711;BME280;20721;47.402;8.550;2024-01-30T11:10:33;97584;;;13.28;42.41
2711;BME280;20721;47.402;8.550;2024-01-30T11:13:32;97582;;;13.32;42.56
2711;BME280;20721;47.402;8.550;2024-01-30T11:15:37;97582;;;13.31;42.99
2711;BME280;20721;47.402;8.550;2024-01-30T11:17:45;97584;;;13.34;43.11
2711;BME280;20721;47.402;8.550;2024-01-30T11:19:33;97580;;;13.40;43.13
2711;BME280;20721;47.402;8.550;2024-01-30T11:21:32;97575;;;13.53;42.81
2711;BME280;20721;47.402;8.550;2024-01-30T11:23:33;97573;;;13.64;42.50
2711;BME280;20721;47.402;8.550;2024-01-30T11:25:33;97570;;;13.77;42.49
2711;BME280;20721;47.402;8.550;2024-01-30T11:27:33;97570;;;13.83;42.39
2711;BME280;20721;47.402;8.550;2024-01-30T11:29:32;97570;;;13.86;42.49
2711;BME280;20721;47.402;8.550;2024-01-30T11:31:32;97565;;;13.84;42.61
2711;BME280;20721;47.402;8.550;2024-01-30T11:33:35;97566;;;13.81;42.20
2711;BME280;20721;47.402;8.550;2024-01-30T11:35:33;97561;;;13.84;41.63
2711;BME280;20721;47.402;8.550;2024-01-30T11:37:32;97562;;;13.96;41.31
2711;BME280;20721;47.402;8.550;2024-01-30T11:39:32;97564;;;13.99;41.13
2711;BME280;20721;47.402;8.550;2024-01-30T11:41:33;97563;;;14.06;40.73
2711;BME280;20721;47.402;8.550;2024-01-30T11:46:32;97559;;;14.07;40.91
2711;BME280;20721;47.402;8.550;2024-01-30T11:48:32;97552;;;13.91;41.00
2711;BME280;20721;47.402;8.550;2024-01-30T11:50:33;97553;;;13.90;40.85
2711;BME280;20721;47.402;8.550;2024-01-30T11:52:33;97551;;;13.95;40.49
2711;BME280;20721;47.402;8.550;2024-01-30T11:54:32;97551;;;13.88;41.16
2711;BME280;20721;47.402;8.550;2024-01-30T11:56:32;97552;;;13.98;40.79
2711;BME280;20721;47.402;8.550;2024-01-30T11:58:33;97558;;;14.13;41.00
2711;BME280;20721;47.402;8.550;2024-01-30T12:00:33;97557;;;14.22;40.63
2711;BME280;20721;47.402;8.550;2024-01-30T12:02:32;97554;;;14.11;40.41
2711;BME280;20721;47.402;8.550;2024-01-30T12:04:33;97556;;;14.13;40.34
2711;BME280;20721;47.402;8.550;2024-01-30T12:06:33;97556;;;14.21;40.08
2711;BME280;20721;47.402;8.550;2024-01-30T12:08:32;97551;;;14.16;39.69
2711;BME280;20721;47.402;8.550;2024-01-30T12:10:33;97554;;;14.22;40.26
2711;BME280;20721;47.402;8.550;2024-01-30T12:12:32;97551;;;14.21;39.61
2711;BME280;20721;47.402;8.550;2024-01-30T12:14:32;97546;;;14.05;39.53
2711;BME280;20721;47.402;8.550;2024-01-30T12:16:32;97540;;;14.15;39.26
2711;BME280;20721;47.402;8.550;2024-01-30T12:18:33;97541;;;14.22;39.77
2711;BME280;20721;47.402;8.550;2024-01-30T12:20:32;97537;;;13.96;39.30
2711;BME280;20721;47.402;8.550;2024-01-30T12:22:36;97538;;;13.99;39.84
2711;BME280;20721;47.402;8.550;2024-01-30T12:24:32;97532;;;14.14;39.63
2711;BME280;20721;47.402;8.550;2024-01-30T12:26:32;97535;;;14.25;39.75
2711;BME280;20721;47.402;8.550;2024-01-30T12:28:33;97529;;;14.35;39.49